createdAt,value
2022-08-19T00:05:06.124Z,23.35
2022-08-19T00:10:12.796Z,23.26
2022-08-19T00:15:19.295Z,23.18
2022-08-19T00:20:24.661Z,23.08
2022-08-19T00:25:30.758Z,22.98
2022-08-19T00:30:36.320Z,22.88
2022-08-19T00:35:41.765Z,22.77
2022-08-19T00:40:48.078Z,22.67
2022-08-19T00:45:56.399Z,22.59
2022-08-19T00:51:02.043Z,22.50
2022-08-19T00:56:08.123Z,22.41
2022-08-19T01:01:13.980Z,22.33
2022-08-19T01:06:20.860Z,22.23
2022-08-19T01:11:26.417Z,22.14
2022-08-19T01:16:32.848Z,22.04
2022-08-19T01:21:41.275Z,21.94
2022-08-19T01:26:47.515Z,21.84
2022-08-19T01:31:54.763Z,21.75
2022-08-19T01:37:00.123Z,21.65
2022-08-19T01:42:06.593Z,21.56
2022-08-19T01:47:11.895Z,21.47
2022-08-19T01:52:17.413Z,21.37
2022-08-19T01:57:23.002Z,21.28
2022-08-19T02:02:28.561Z,21.19
2022-08-19T02:07:34.197Z,21.10
2022-08-19T02:12:39.811Z,21.03
2022-08-19T02:17:45.036Z,20.94
2022-08-19T02:22:50.344Z,20.87
2022-08-19T02:27:55.988Z,20.80
2022-08-19T02:33:01.204Z,20.73
2022-08-19T02:38:24.116Z,20.68
2022-08-19T02:43:32.192Z,20.62
2022-08-19T02:48:39.565Z,20.58
2022-08-19T02:53:44.942Z,20.54
2022-08-19T02:58:50.837Z,20.53
2022-08-19T03:03:58.484Z,20.53
2022-08-19T03:09:03.917Z,20.55
2022-08-19T03:14:10.800Z,20.58
2022-08-19T03:19:17.005Z,20.62
2022-08-19T03:24:23.084Z,20.67
2022-08-19T03:29:30.788Z,20.73
2022-08-19T03:34:39.055Z,20.78
2022-08-19T03:39:44.905Z,20.85
2022-08-19T03:44:50.376Z,20.91
2022-08-19T03:49:55.954Z,20.96
2022-08-19T03:55:01.668Z,21.02
2022-08-19T04:00:13.641Z,21.07
2022-08-19T04:05:19.385Z,21.12
2022-08-19T04:10:30.286Z,21.18
2022-08-19T04:15:41.074Z,21.24
2022-08-19T04:20:47.817Z,21.29
2022-08-19T04:25:53.250Z,21.36
2022-08-19T04:30:59.519Z,21.40
2022-08-19T04:36:05.184Z,21.47
2022-08-19T04:41:28.273Z,21.54
2022-08-19T04:46:40.280Z,21.63
2022-08-19T04:51:57.469Z,21.75
2022-08-19T04:57:03.100Z,21.89
2022-08-19T05:02:11.155Z,22.06
2022-08-19T05:07:16.739Z,22.25
2022-08-19T05:12:22.043Z,22.45
2022-08-19T05:17:36.299Z,22.66
2022-08-19T05:22:43.990Z,22.86
2022-08-19T05:27:49.906Z,23.05
2022-08-19T05:32:57.168Z,23.24
2022-08-19T05:38:02.585Z,23.42
2022-08-19T05:43:09.212Z,23.60
2022-08-19T05:48:14.741Z,23.80
2022-08-19T05:53:20.810Z,23.98
2022-08-19T05:58:28.107Z,24.15
2022-08-19T06:03:34.619Z,24.32
2022-08-19T06:08:40.256Z,24.48
2022-08-19T06:13:46.438Z,24.63
2022-08-19T06:18:54.112Z,24.80
2022-08-19T06:24:00.005Z,24.95
2022-08-19T06:29:07.456Z,25.13
2022-08-19T06:34:13.140Z,25.33
2022-08-19T06:39:20.236Z,25.52
2022-08-19T06:44:27.576Z,25.71
2022-08-19T06:49:33.773Z,25.90
2022-08-19T06:54:56.164Z,26.07
2022-08-19T07:00:02.752Z,26.24
2022-08-19T07:05:09.203Z,26.40
2022-08-19T07:10:16.924Z,26.55
2022-08-19T07:15:22.959Z,26.69
2022-08-19T07:20:29.583Z,26.81
2022-08-19T07:25:35.458Z,26.93
2022-08-19T07:30:42.348Z,27.06
2022-08-19T07:35:50.121Z,27.21
2022-08-19T07:40:55.561Z,27.35
2022-08-19T07:46:01.283Z,27.49
2022-08-19T07:51:09.496Z,27.64
2022-08-19T07:56:15.279Z,27.79
2022-08-19T08:01:21.906Z,27.93
2022-08-19T08:06:59.614Z,28.08
2022-08-19T08:12:32.936Z,28.23
2022-08-19T08:17:49.198Z,28.39
2022-08-19T08:23:14.461Z,28.56
2022-08-19T08:28:20.186Z,28.75
2022-08-19T08:33:34.235Z,28.94
2022-08-19T08:38:41.701Z,29.10
2022-08-19T08:43:48.339Z,29.24
2022-08-19T08:48:56.764Z,29.35
2022-08-19T08:54:02.670Z,29.45
2022-08-19T08:59:11.323Z,29.54
2022-08-19T09:04:16.873Z,29.63
2022-08-19T09:09:32.506Z,29.70
2022-08-19T09:14:51.553Z,29.77
2022-08-19T09:19:59.036Z,29.84
2022-08-19T09:25:06.220Z,29.91
2022-08-19T09:30:14.279Z,29.97
2022-08-19T09:35:19.827Z,30.04
2022-08-19T09:40:26.352Z,30.11
2022-08-19T09:45:31.908Z,30.16
2022-08-19T09:50:51.677Z,30.23
2022-08-19T09:55:59.382Z,30.30
2022-08-19T10:01:06.015Z,30.37
2022-08-19T10:06:15.120Z,30.44
2022-08-19T10:11:28.033Z,30.52
2022-08-19T10:16:43.390Z,30.61
2022-08-19T10:21:49.157Z,30.70
2022-08-19T10:26:57.046Z,30.80
2022-08-19T10:32:09.626Z,30.90
2022-08-19T10:37:15.796Z,30.99
2022-08-19T10:42:29.722Z,31.08
2022-08-19T10:47:35.456Z,31.16
2022-08-19T10:52:49.836Z,31.25
2022-08-19T10:58:03.383Z,31.32
2022-08-19T11:03:09.508Z,31.40
2022-08-19T11:08:22.095Z,31.49
2022-08-19T11:13:30.094Z,31.57
2022-08-19T11:18:35.693Z,31.65
2022-08-19T11:23:41.513Z,31.73
2022-08-19T11:28:47.424Z,31.82
2022-08-19T11:33:53.905Z,31.89
2022-08-19T11:39:01.001Z,31.96
2022-08-19T11:44:08.979Z,32.04
2022-08-19T11:49:15.221Z,32.09
2022-08-19T11:54:20.887Z,32.13
2022-08-19T11:59:28.232Z,32.15
2022-08-19T12:04:35.392Z,32.17
2022-08-19T12:09:42.679Z,32.18
2022-08-19T12:14:48.522Z,32.21
2022-08-19T12:19:54.039Z,32.25
2022-08-19T12:24:59.887Z,32.29
2022-08-19T12:30:05.587Z,32.34
2022-08-19T12:35:12.725Z,32.38
2022-08-19T12:40:19.269Z,32.42
2022-08-19T12:45:24.923Z,32.47
2022-08-19T12:50:30.623Z,32.52
2022-08-19T12:55:36.395Z,32.56
2022-08-19T13:00:42.315Z,32.60
2022-08-19T13:05:47.737Z,32.64
2022-08-19T13:10:53.166Z,32.67
2022-08-19T13:16:03.742Z,32.69
2022-08-19T13:21:10.249Z,32.71
2022-08-19T13:26:16.167Z,32.72
2022-08-19T13:31:39.486Z,32.74
2022-08-19T13:36:44.655Z,32.76
2022-08-19T13:41:51.376Z,32.78
2022-08-19T13:46:57.093Z,32.81
2022-08-19T13:52:02.347Z,32.83
2022-08-19T13:57:08.016Z,32.84
2022-08-19T14:02:13.336Z,32.85
2022-08-19T14:07:18.886Z,32.85
2022-08-19T14:12:28.421Z,32.85
2022-08-19T14:17:36.136Z,32.83
2022-08-19T14:22:42.256Z,32.81
2022-08-19T14:27:47.667Z,32.80
2022-08-19T14:32:53.339Z,32.77
2022-08-19T14:37:59.525Z,32.76
2022-08-19T14:43:06.529Z,32.74
2022-08-19T14:48:12.573Z,32.72
2022-08-19T14:53:25.701Z,32.69
2022-08-19T14:58:31.920Z,32.66
2022-08-19T15:03:37.581Z,32.61
2022-08-19T15:08:44.482Z,32.58
2022-08-19T15:13:49.942Z,32.56
2022-08-19T15:18:56.555Z,32.53
2022-08-19T15:24:03.513Z,32.50
2022-08-19T15:29:08.952Z,32.47
2022-08-19T15:34:14.309Z,32.44
2022-08-19T15:39:19.943Z,32.41
2022-08-19T15:44:25.592Z,32.37
2022-08-19T15:49:30.758Z,32.33
2022-08-19T15:54:36.791Z,32.31
2022-08-19T16:00:02.505Z,32.29
2022-08-19T16:05:31.869Z,32.25
2022-08-19T16:10:38.789Z,32.23
2022-08-19T16:15:45.260Z,32.21
2022-08-19T16:20:51.131Z,32.18
2022-08-19T16:25:56.524Z,32.14
2022-08-19T16:31:02.376Z,32.09
2022-08-19T16:36:08.719Z,32.05
2022-08-19T16:41:15.987Z,31.99
2022-08-19T16:46:22.628Z,31.94
2022-08-19T16:51:28.841Z,31.88
2022-08-19T16:56:34.502Z,31.82
2022-08-19T17:01:41.990Z,31.76
2022-08-19T17:06:47.840Z,31.70
2022-08-19T17:11:53.526Z,31.64
2022-08-19T17:16:59.177Z,31.56
2022-08-19T17:22:04.366Z,31.49
2022-08-19T17:27:09.754Z,31.41
2022-08-19T17:32:15.746Z,31.33
2022-08-19T17:37:21.235Z,31.24
2022-08-19T17:42:27.073Z,31.14
2022-08-19T17:47:32.687Z,31.05
2022-08-19T17:52:39.384Z,30.95
2022-08-19T17:57:46.811Z,30.85
2022-08-19T18:02:53.687Z,30.75
2022-08-19T18:08:00.246Z,30.65
2022-08-19T18:13:16.941Z,30.54
2022-08-19T18:18:23.414Z,30.43
2022-08-19T18:23:45.601Z,30.31
2022-08-19T18:28:52.765Z,30.20
2022-08-19T18:33:58.348Z,30.09
2022-08-19T18:39:21.450Z,29.97
2022-08-19T18:44:45.076Z,29.85
2022-08-19T18:49:51.611Z,29.72
2022-08-19T18:54:57.337Z,29.60
2022-08-19T19:00:04.765Z,29.48
2022-08-19T19:05:10.806Z,29.36
2022-08-19T19:10:16.589Z,29.24
2022-08-19T19:15:22.303Z,29.12
2022-08-19T19:20:36.336Z,29.00
2022-08-19T19:25:44.740Z,28.88
2022-08-19T19:30:57.974Z,28.77
2022-08-19T19:36:03.489Z,28.66
2022-08-19T19:41:08.987Z,28.56
2022-08-19T19:46:14.406Z,28.46
2022-08-19T19:51:20.267Z,28.35
2022-08-19T19:56:25.915Z,28.26
2022-08-19T20:01:31.597Z,28.17
2022-08-19T20:06:37.413Z,28.08
2022-08-19T20:11:44.168Z,27.99
2022-08-19T20:16:50.286Z,27.90
2022-08-19T20:21:57.727Z,27.81
2022-08-19T20:27:03.506Z,27.73
2022-08-19T20:32:09.792Z,27.65
2022-08-19T20:37:14.893Z,27.58
2022-08-19T20:42:20.672Z,27.50
2022-08-19T20:47:26.654Z,27.43
2022-08-19T20:52:32.156Z,27.36
2022-08-19T20:57:37.806Z,27.30
2022-08-19T21:02:43.453Z,27.23
2022-08-19T21:07:49.061Z,27.17
2022-08-19T21:12:55.983Z,27.10
2022-08-19T21:18:01.609Z,27.04
2022-08-19T21:23:09.516Z,26.97
2022-08-19T21:28:16.879Z,26.91
2022-08-19T21:33:41.215Z,26.84
2022-08-19T21:38:46.615Z,26.77
2022-08-19T21:43:52.249Z,26.70
2022-08-19T21:48:57.728Z,26.64
2022-08-19T21:54:03.105Z,26.57
2022-08-19T21:59:09.167Z,26.50
2022-08-19T22:04:14.569Z,26.44
2022-08-19T22:09:20.327Z,26.39
2022-08-19T22:14:26.833Z,26.34
2022-08-19T22:19:35.111Z,26.30
2022-08-19T22:24:40.579Z,26.26
2022-08-19T22:29:45.761Z,26.21
2022-08-19T22:34:51.437Z,26.19
2022-08-19T22:39:57.090Z,26.15
2022-08-19T22:45:02.550Z,26.13
2022-08-19T22:50:13.702Z,26.10
2022-08-19T22:55:19.609Z,26.08
2022-08-19T23:00:27.369Z,26.06
2022-08-19T23:05:33.053Z,26.05
2022-08-19T23:10:43.304Z,26.04
2022-08-19T23:15:48.925Z,26.03
2022-08-19T23:20:55.132Z,26.02
2022-08-19T23:26:00.635Z,26.02
2022-08-19T23:31:06.236Z,26.02
2022-08-19T23:36:14.592Z,26.02
2022-08-19T23:41:21.257Z,26.03
2022-08-19T23:46:28.067Z,26.03
2022-08-19T23:51:34.272Z,26.03
2022-08-19T23:56:39.463Z,26.02
